sensor_id;sensor_type;location;lat;lon;timestamp;P1;durP1;ratioP1;P2;durP2;ratioP2
57856;SDS011;43683;48.650;9.290;2022-12-05T00:00:14;14.45;;;7.03;;
57856;SDS011;43683;48.650;9.290;2022-12-05T00:02:41;13.07;;;8.07;;
57856;SDS011;43683;48.650;9.290;2022-12-05T00:05:06;16.48;;;7.88;;
57856;SDS011;43683;48.650;9.290;2022-12-05T00:07:33;12.88;;;6.90;;
57856;SDS011;43683;48.650;9.290;2022-12-05T00:09:59;13.65;;;6.55;;
57856;SDS011;43683;48.650;9.290;2022-12-05T00:12:24;13.20;;;7.70;;
57856;SDS011;43683;48.650;9.290;2022-12-05T00:14:50;13.55;;;6.63;;
57856;SDS011;43683;48.650;9.290;2022-12-05T00:17:16;14.55;;;6.97;;
57856;SDS011;43683;48.650;9.290;2022-12-05T00:19:41;13.02;;;6.50;;
57856;SDS011;43683;48.650;9.290;2022-12-05T00:22:07;15.18;;;7.10;;
57856;SDS011;43683;48.650;9.290;2022-12-05T00:24:32;14.48;;;7.15;;
57856;SDS011;43683;48.650;9.290;2022-12-05T00:26:58;14.57;;;6.65;;
57856;SDS011;43683;48.650;9.290;2022-12-05T00:29:23;15.30;;;6.70;;
57856;SDS011;43683;48.650;9.290;2022-12-05T00:31:49;12.43;;;5.45;;
57856;SDS011;43683;48.650;9.290;2022-12-05T00:34:14;13.88;;;7.20;;
57856;SDS011;43683;48.650;9.290;2022-12-05T00:36:40;13.43;;;6.13;;
57856;SDS011;43683;48.650;9.290;2022-12-05T00:39:07;14.55;;;7.20;;
57856;SDS011;43683;48.650;9.290;2022-12-05T00:41:35;13.82;;;6.90;;
57856;SDS011;43683;48.650;9.290;2022-12-05T00:44:02;15.57;;;7.23;;
57856;SDS011;43683;48.650;9.290;2022-12-05T00:46:29;11.70;;;6.65;;
57856;SDS011;43683;48.650;9.290;2022-12-05T00:48:56;11.35;;;5.72;;
57856;SDS011;43683;48.650;9.290;2022-12-05T00:51:24;13.35;;;6.93;;
57856;SDS011;43683;48.650;9.290;2022-12-05T00:53:52;12.55;;;6.10;;
57856;SDS011;43683;48.650;9.290;2022-12-05T00:56:20;12.52;;;6.43;;
57856;SDS011;43683;48.650;9.290;2022-12-05T00:58:48;14.13;;;6.28;;
57856;SDS011;43683;48.650;9.290;2022-12-05T01:01:16;13.77;;;6.82;;
57856;SDS011;43683;48.650;9.290;2022-12-05T01:03:46;14.65;;;7.38;;
57856;SDS011;43683;48.650;9.290;2022-12-05T01:06:13;17.45;;;8.40;;
57856;SDS011;43683;48.650;9.290;2022-12-05T01:08:40;14.48;;;6.88;;
57856;SDS011;43683;48.650;9.290;2022-12-05T01:11:07;14.77;;;6.75;;
57856;SDS011;43683;48.650;9.290;2022-12-05T01:13:33;11.80;;;6.47;;
57856;SDS011;43683;48.650;9.290;2022-12-05T01:15:59;12.90;;;6.78;;
57856;SDS011;43683;48.650;9.290;2022-12-05T01:18:25;16.55;;;7.13;;
57856;SDS011;43683;48.650;9.290;2022-12-05T01:20:51;18.67;;;8.13;;
57856;SDS011;43683;48.650;9.290;2022-12-05T01:23:17;15.00;;;7.15;;
57856;SDS011;43683;48.650;9.290;2022-12-05T01:25:45;12.75;;;5.95;;
57856;SDS011;43683;48.650;9.290;2022-12-05T01:28:13;12.88;;;7.28;;
57856;SDS011;43683;48.650;9.290;2022-12-05T01:30:41;20.40;;;7.93;;
57856;SDS011;43683;48.650;9.290;2022-12-05T01:33:08;14.57;;;8.07;;
57856;SDS011;43683;48.650;9.290;2022-12-05T01:35:35;14.68;;;7.25;;
57856;SDS011;43683;48.650;9.290;2022-12-05T01:38:02;15.23;;;7.25;;
57856;SDS011;43683;48.650;9.290;2022-12-05T01:40:28;11.15;;;7.03;;
57856;SDS011;43683;48.650;9.290;2022-12-05T01:42:54;14.80;;;6.82;;
57856;SDS011;43683;48.650;9.290;2022-12-05T01:45:33;17.00;;;7.93;;
57856;SDS011;43683;48.650;9.290;2022-12-05T01:48:03;14.38;;;7.20;;
57856;SDS011;43683;48.650;9.290;2022-12-05T01:50:32;13.13;;;6.70;;
57856;SDS011;43683;48.650;9.290;2022-12-05T01:52:58;12.82;;;7.38;;
57856;SDS011;43683;48.650;9.290;2022-12-05T01:55:24;16.27;;;7.30;;
57856;SDS011;43683;48.650;9.290;2022-12-05T01:57:50;15.50;;;6.55;;
57856;SDS011;43683;48.650;9.290;2022-12-05T02:00:16;15.27;;;8.15;;
57856;SDS011;43683;48.650;9.290;2022-12-05T02:02:53;16.10;;;7.63;;
57856;SDS011;43683;48.650;9.290;2022-12-05T02:05:24;18.33;;;7.85;;
57856;SDS011;43683;48.650;9.290;2022-12-05T02:07:53;17.20;;;7.47;;
57856;SDS011;43683;48.650;9.290;2022-12-05T02:10:20;15.50;;;6.50;;
57856;SDS011;43683;48.650;9.290;2022-12-05T02:12:45;14.25;;;6.90;;
57856;SDS011;43683;48.650;9.290;2022-12-05T02:15:22;17.00;;;8.02;;
57856;SDS011;43683;48.650;9.290;2022-12-05T02:23:58;15.57;;;7.22;;
57856;SDS011;43683;48.650;9.290;2022-12-05T02:32:18;14.30;;;6.97;;
57856;SDS011;43683;48.650;9.290;2022-12-05T02:35:02;13.82;;;6.88;;
57856;SDS011;43683;48.650;9.290;2022-12-05T02:38:01;14.20;;;7.47;;
57856;SDS011;43683;48.650;9.290;2022-12-05T02:40:53;20.92;;;7.97;;
57856;SDS011;43683;48.650;9.290;2022-12-05T02:43:21;15.05;;;7.35;;
57856;SDS011;43683;48.650;9.290;2022-12-05T02:45:51;19.02;;;8.07;;
57856;SDS011;43683;48.650;9.290;2022-12-05T02:48:20;14.55;;;7.30;;
57856;SDS011;43683;48.650;9.290;2022-12-05T02:50:47;17.20;;;8.30;;
57856;SDS011;43683;48.650;9.290;2022-12-05T02:53:15;19.48;;;8.18;;
57856;SDS011;43683;48.650;9.290;2022-12-05T02:55:44;19.00;;;9.95;;
57856;SDS011;43683;48.650;9.290;2022-12-05T02:58:15;20.08;;;9.20;;
57856;SDS011;43683;48.650;9.290;2022-12-05T03:00:46;33.10;;;14.05;;
57856;SDS011;43683;48.650;9.290;2022-12-05T03:03:15;21.27;;;9.98;;
57856;SDS011;43683;48.650;9.290;2022-12-05T03:05:49;19.80;;;10.00;;
57856;SDS011;43683;48.650;9.290;2022-12-05T03:08:21;20.77;;;9.35;;
57856;SDS011;43683;48.650;9.290;2022-12-05T03:10:52;19.10;;;9.02;;
57856;SDS011;43683;48.650;9.290;2022-12-05T03:13:24;20.30;;;8.50;;
57856;SDS011;43683;48.650;9.290;2022-12-05T03:15:54;22.02;;;9.23;;
57856;SDS011;43683;48.650;9.290;2022-12-05T03:18:30;18.52;;;7.72;;
57856;SDS011;43683;48.650;9.290;2022-12-05T03:21:04;18.67;;;8.68;;
57856;SDS011;43683;48.650;9.290;2022-12-05T03:23:55;21.67;;;8.25;;
57856;SDS011;43683;48.650;9.290;2022-12-05T03:26:31;17.13;;;7.53;;
57856;SDS011;43683;48.650;9.290;2022-12-05T03:37:11;18.10;;;8.30;;
57856;SDS011;43683;48.650;9.290;2022-12-05T03:39:50;16.85;;;7.95;;
57856;SDS011;43683;48.650;9.290;2022-12-05T03:42:28;16.27;;;7.47;;
57856;SDS011;43683;48.650;9.290;2022-12-05T03:45:02;20.35;;;8.75;;
57856;SDS011;43683;48.650;9.290;2022-12-05T03:47:48;17.90;;;7.68;;
57856;SDS011;43683;48.650;9.290;2022-12-05T03:50:25;16.17;;;7.60;;
57856;SDS011;43683;48.650;9.290;2022-12-05T03:52:53;14.73;;;7.28;;
57856;SDS011;43683;48.650;9.290;2022-12-05T03:55:30;16.27;;;7.60;;
57856;SDS011;43683;48.650;9.290;2022-12-05T03:58:04;15.68;;;7.93;;
57856;SDS011;43683;48.650;9.290;2022-12-05T04:00:34;15.43;;;7.53;;
57856;SDS011;43683;48.650;9.290;2022-12-05T04:03:07;16.05;;;8.02;;
57856;SDS011;43683;48.650;9.290;2022-12-05T04:05:48;18.70;;;8.05;;
57856;SDS011;43683;48.650;9.290;2022-12-05T04:10:50;17.20;;;8.40;;
57856;SDS011;43683;48.650;9.290;2022-12-05T04:13:32;17.48;;;7.90;;
57856;SDS011;43683;48.650;9.290;2022-12-05T04:16:03;16.52;;;8.07;;
57856;SDS011;43683;48.650;9.290;2022-12-05T04:19:25;16.70;;;7.88;;
57856;SDS011;43683;48.650;9.290;2022-12-05T04:22:18;15.98;;;7.03;;
57856;SDS011;43683;48.650;9.290;2022-12-05T04:24:44;16.00;;;7.83;;
57856;SDS011;43683;48.650;9.290;2022-12-05T04:27:33;14.15;;;7.80;;
57856;SDS011;43683;48.650;9.290;2022-12-05T04:30:19;15.20;;;7.93;;
57856;SDS011;43683;48.650;9.290;2022-12-05T04:38:11;17.42;;;7.95;;
57856;SDS011;43683;48.650;9.290;2022-12-05T04:41:03;17.88;;;8.30;;
57856;SDS011;43683;48.650;9.290;2022-12-05T04:43:34;16.33;;;7.38;;
57856;SDS011;43683;48.650;9.290;2022-12-05T04:46:03;19.63;;;9.32;;
57856;SDS011;43683;48.650;9.290;2022-12-05T04:48:32;19.15;;;8.73;;
57856;SDS011;43683;48.650;9.290;2022-12-05T04:51:01;20.95;;;9.02;;
57856;SDS011;43683;48.650;9.290;2022-12-05T04:53:30;18.50;;;8.07;;
57856;SDS011;43683;48.650;9.290;2022-12-05T04:55:57;17.48;;;8.07;;
57856;SDS011;43683;48.650;9.290;2022-12-05T04:58:26;14.88;;;7.97;;
57856;SDS011;43683;48.650;9.290;2022-12-05T05:03:53;16.15;;;8.02;;
57856;SDS011;43683;48.650;9.290;2022-12-05T05:06:26;19.20;;;9.23;;
57856;SDS011;43683;48.650;9.290;2022-12-05T05:08:53;19.05;;;8.07;;
57856;SDS011;43683;48.650;9.290;2022-12-05T05:11:27;16.90;;;8.15;;
57856;SDS011;43683;48.650;9.290;2022-12-05T05:13:54;18.58;;;7.90;;
57856;SDS011;43683;48.650;9.290;2022-12-05T05:16:23;16.90;;;7.88;;
57856;SDS011;43683;48.650;9.290;2022-12-05T05:18:51;20.92;;;9.50;;
57856;SDS011;43683;48.650;9.290;2022-12-05T05:21:19;19.55;;;8.77;;
57856;SDS011;43683;48.650;9.290;2022-12-05T05:23:46;20.45;;;9.23;;
57856;SDS011;43683;48.650;9.290;2022-12-05T05:26:12;19.27;;;8.02;;
57856;SDS011;43683;48.650;9.290;2022-12-05T05:28:37;23.23;;;9.07;;
57856;SDS011;43683;48.650;9.290;2022-12-05T05:31:03;17.25;;;8.48;;
57856;SDS011;43683;48.650;9.290;2022-12-05T05:33:29;20.02;;;9.38;;
57856;SDS011;43683;48.650;9.290;2022-12-05T05:35:56;23.55;;;9.73;;
57856;SDS011;43683;48.650;9.290;2022-12-05T05:38:21;19.65;;;9.50;;
57856;SDS011;43683;48.650;9.290;2022-12-05T05:40:47;18.80;;;9.20;;
57856;SDS011;43683;48.650;9.290;2022-12-05T05:43:13;21.95;;;10.15;;
57856;SDS011;43683;48.650;9.290;2022-12-05T05:45:38;25.20;;;10.45;;
57856;SDS011;43683;48.650;9.290;2022-12-05T05:48:04;22.05;;;11.05;;
57856;SDS011;43683;48.650;9.290;2022-12-05T05:50:29;24.35;;;10.75;;
57856;SDS011;43683;48.650;9.290;2022-12-05T05:52:55;21.35;;;10.95;;
57856;SDS011;43683;48.650;9.290;2022-12-05T05:55:21;24.20;;;11.07;;
57856;SDS011;43683;48.650;9.290;2022-12-05T05:57:46;21.23;;;11.07;;
57856;SDS011;43683;48.650;9.290;2022-12-05T06:00:12;17.15;;;10.10;;
57856;SDS011;43683;48.650;9.290;2022-12-05T06:02:38;22.42;;;10.88;;
57856;SDS011;43683;48.650;9.290;2022-12-05T06:05:04;19.40;;;10.48;;
57856;SDS011;43683;48.650;9.290;2022-12-05T06:07:30;18.20;;;9.73;;
57856;SDS011;43683;48.650;9.290;2022-12-05T06:09:55;17.33;;;10.10;;
57856;SDS011;43683;48.650;9.290;2022-12-05T06:12:21;18.75;;;8.35;;
57856;SDS011;43683;48.650;9.290;2022-12-05T06:14:47;19.77;;;9.00;;
57856;SDS011;43683;48.650;9.290;2022-12-05T06:17:13;16.63;;;8.52;;
57856;SDS011;43683;48.650;9.290;2022-12-05T06:19:39;17.48;;;8.75;;
57856;SDS011;43683;48.650;9.290;2022-12-05T06:22:05;19.65;;;9.75;;
57856;SDS011;43683;48.650;9.290;2022-12-05T06:24:30;14.77;;;8.45;;
57856;SDS011;43683;48.650;9.290;2022-12-05T06:26:56;17.92;;;9.20;;
57856;SDS011;43683;48.650;9.290;2022-12-05T06:29:21;17.42;;;8.25;;
57856;SDS011;43683;48.650;9.290;2022-12-05T06:31:47;16.25;;;6.95;;
57856;SDS011;43683;48.650;9.290;2022-12-05T06:34:12;13.80;;;8.05;;
57856;SDS011;43683;48.650;9.290;2022-12-05T06:36:38;16.38;;;8.65;;
57856;SDS011;43683;48.650;9.290;2022-12-05T06:39:04;15.90;;;7.63;;
57856;SDS011;43683;48.650;9.290;2022-12-05T06:41:29;15.23;;;8.48;;
57856;SDS011;43683;48.650;9.290;2022-12-05T06:43:55;21.52;;;9.57;;
57856;SDS011;43683;48.650;9.290;2022-12-05T06:46:23;17.77;;;9.15;;
57856;SDS011;43683;48.650;9.290;2022-12-05T06:48:53;16.75;;;8.57;;
57856;SDS011;43683;48.650;9.290;2022-12-05T06:51:20;17.02;;;7.90;;
57856;SDS011;43683;48.650;9.290;2022-12-05T06:53:46;19.45;;;8.27;;
57856;SDS011;43683;48.650;9.290;2022-12-05T06:56:13;16.92;;;8.57;;
57856;SDS011;43683;48.650;9.290;2022-12-05T06:58:44;18.25;;;9.73;;
57856;SDS011;43683;48.650;9.290;2022-12-05T07:01:12;19.20;;;9.20;;
57856;SDS011;43683;48.650;9.290;2022-12-05T07:03:58;14.02;;;7.47;;
57856;SDS011;43683;48.650;9.290;2022-12-05T07:06:24;16.00;;;8.25;;
57856;SDS011;43683;48.650;9.290;2022-12-05T07:08:50;14.25;;;7.13;;
57856;SDS011;43683;48.650;9.290;2022-12-05T07:11:16;17.25;;;8.00;;
57856;SDS011;43683;48.650;9.290;2022-12-05T07:13:41;17.30;;;7.72;;
57856;SDS011;43683;48.650;9.290;2022-12-05T07:16:08;14.50;;;7.65;;
57856;SDS011;43683;48.650;9.290;2022-12-05T07:18:34;14.60;;;8.38;;
57856;SDS011;43683;48.650;9.290;2022-12-05T07:21:01;20.63;;;9.23;;
57856;SDS011;43683;48.650;9.290;2022-12-05T07:23:31;17.67;;;9.00;;
57856;SDS011;43683;48.650;9.290;2022-12-05T07:25:57;18.75;;;8.95;;
57856;SDS011;43683;48.650;9.290;2022-12-05T07:28:23;17.88;;;8.38;;
57856;SDS011;43683;48.650;9.290;2022-12-05T07:30:57;16.00;;;8.55;;
57856;SDS011;43683;48.650;9.290;2022-12-05T07:33:27;16.63;;;8.15;;
57856;SDS011;43683;48.650;9.290;2022-12-05T07:35:57;16.17;;;7.50;;
57856;SDS011;43683;48.650;9.290;2022-12-05T07:38:27;13.80;;;7.40;;
57856;SDS011;43683;48.650;9.290;2022-12-05T07:40:53;18.30;;;8.02;;
57856;SDS011;43683;48.650;9.290;2022-12-05T07:43:19;11.75;;;7.32;;
57856;SDS011;43683;48.650;9.290;2022-12-05T07:45:45;15.98;;;7.13;;
57856;SDS011;43683;48.650;9.290;2022-12-05T07:48:10;13.75;;;7.10;;
57856;SDS011;43683;48.650;9.290;2022-12-05T07:50:36;15.82;;;7.60;;
57856;SDS011;43683;48.650;9.290;2022-12-05T07:53:01;15.73;;;8.43;;
57856;SDS011;43683;48.650;9.290;2022-12-05T07:55:27;17.00;;;8.80;;
57856;SDS011;43683;48.650;9.290;2022-12-05T07:57:53;15.05;;;7.78;;
57856;SDS011;43683;48.650;9.290;2022-12-05T08:00:19;19.15;;;8.07;;
57856;SDS011;43683;48.650;9.290;2022-12-05T08:02:45;14.30;;;8.55;;
57856;SDS011;43683;48.650;9.290;2022-12-05T08:05:10;13.90;;;7.25;;
57856;SDS011;43683;48.650;9.290;2022-12-05T08:07:36;15.93;;;7.35;;
57856;SDS011;43683;48.650;9.290;2022-12-05T08:10:02;14.32;;;7.22;;
57856;SDS011;43683;48.650;9.290;2022-12-05T08:12:28;14.60;;;6.93;;
57856;SDS011;43683;48.650;9.290;2022-12-05T08:14:53;11.88;;;6.78;;
57856;SDS011;43683;48.650;9.290;2022-12-05T08:17:19;12.82;;;6.72;;
57856;SDS011;43683;48.650;9.290;2022-12-05T08:19:44;9.95;;;6.30;;
57856;SDS011;43683;48.650;9.290;2022-12-05T08:22:10;15.73;;;7.28;;
57856;SDS011;43683;48.650;9.290;2022-12-05T08:24:35;16.90;;;7.65;;
57856;SDS011;43683;48.650;9.290;2022-12-05T08:27:02;11.98;;;6.20;;
57856;SDS011;43683;48.650;9.290;2022-12-05T08:29:28;11.00;;;5.38;;
57856;SDS011;43683;48.650;9.290;2022-12-05T08:31:54;14.30;;;6.03;;
57856;SDS011;43683;48.650;9.290;2022-12-05T08:34:19;11.80;;;5.57;;
57856;SDS011;43683;48.650;9.290;2022-12-05T08:36:45;12.73;;;6.40;;
57856;SDS011;43683;48.650;9.290;2022-12-05T08:39:12;10.80;;;5.75;;
57856;SDS011;43683;48.650;9.290;2022-12-05T08:41:40;10.40;;;6.20;;
57856;SDS011;43683;48.650;9.290;2022-12-05T08:44:09;13.50;;;5.55;;
57856;SDS011;43683;48.650;9.290;2022-12-05T08:46:40;10.05;;;5.75;;
57856;SDS011;43683;48.650;9.290;2022-12-05T08:49:06;10.73;;;5.95;;
57856;SDS011;43683;48.650;9.290;2022-12-05T08:51:32;11.30;;;6.47;;
57856;SDS011;43683;48.650;9.290;2022-12-05T08:53:57;11.18;;;6.88;;
57856;SDS011;43683;48.650;9.290;2022-12-05T08:56:25;12.77;;;6.88;;
57856;SDS011;43683;48.650;9.290;2022-12-05T08:58:51;11.82;;;6.72;;
57856;SDS011;43683;48.650;9.290;2022-12-05T09:01:17;9.90;;;5.68;;
57856;SDS011;43683;48.650;9.290;2022-12-05T09:03:44;19.05;;;9.63;;
57856;SDS011;43683;48.650;9.290;2022-12-05T09:06:12;11.85;;;6.88;;
57856;SDS011;43683;48.650;9.290;2022-12-05T09:08:39;12.38;;;6.53;;
57856;SDS011;43683;48.650;9.290;2022-12-05T09:11:07;11.47;;;6.30;;
57856;SDS011;43683;48.650;9.290;2022-12-05T09:13:38;9.65;;;5.70;;
57856;SDS011;43683;48.650;9.290;2022-12-05T09:16:12;12.07;;;6.07;;
57856;SDS011;43683;48.650;9.290;2022-12-05T09:18:39;13.70;;;6.78;;
57856;SDS011;43683;48.650;9.290;2022-12-05T09:21:11;13.35;;;6.75;;
57856;SDS011;43683;48.650;9.290;2022-12-05T09:23:37;12.02;;;7.00;;
57856;SDS011;43683;48.650;9.290;2022-12-05T09:26:04;10.50;;;5.82;;
57856;SDS011;43683;48.650;9.290;2022-12-05T09:28:37;13.38;;;6.30;;
57856;SDS011;43683;48.650;9.290;2022-12-05T09:31:04;12.50;;;6.45;;
57856;SDS011;43683;48.650;9.290;2022-12-05T09:33:32;9.98;;;6.03;;
57856;SDS011;43683;48.650;9.290;2022-12-05T09:36:06;11.82;;;6.15;;
57856;SDS011;43683;48.650;9.290;2022-12-05T09:38:34;10.82;;;5.90;;
57856;SDS011;43683;48.650;9.290;2022-12-05T09:43:51;11.35;;;5.60;;
57856;SDS011;43683;48.650;9.290;2022-12-05T09:46:38;10.93;;;5.72;;
57856;SDS011;43683;48.650;9.290;2022-12-05T09:49:17;11.40;;;6.05;;
57856;SDS011;43683;48.650;9.290;2022-12-05T09:51:43;11.15;;;5.70;;
57856;SDS011;43683;48.650;9.290;2022-12-05T09:54:12;17.40;;;10.68;;
57856;SDS011;43683;48.650;9.290;2022-12-05T09:56:39;10.95;;;6.80;;
57856;SDS011;43683;48.650;9.290;2022-12-05T09:59:08;11.38;;;6.82;;
57856;SDS011;43683;48.650;9.290;2022-12-05T10:15:43;11.65;;;5.68;;
57856;SDS011;43683;48.650;9.290;2022-12-05T10:26:18;11.95;;;6.20;;
57856;SDS011;43683;48.650;9.290;2022-12-05T10:31:24;11.52;;;6.55;;
57856;SDS011;43683;48.650;9.290;2022-12-05T10:34:15;13.52;;;6.88;;
57856;SDS011;43683;48.650;9.290;2022-12-05T10:39:43;9.90;;;6.18;;
57856;SDS011;43683;48.650;9.290;2022-12-05T10:42:18;11.05;;;6.05;;
57856;SDS011;43683;48.650;9.290;2022-12-05T10:44:50;11.52;;;6.80;;
57856;SDS011;43683;48.650;9.290;2022-12-05T10:47:21;11.50;;;5.80;;
57856;SDS011;43683;48.650;9.290;2022-12-05T10:49:46;10.48;;;5.88;;
57856;SDS011;43683;48.650;9.290;2022-12-05T10:52:13;13.02;;;6.75;;
57856;SDS011;43683;48.650;9.290;2022-12-05T10:54:50;11.52;;;5.88;;
57856;SDS011;43683;48.650;9.290;2022-12-05T10:57:27;12.55;;;5.95;;
57856;SDS011;43683;48.650;9.290;2022-12-05T10:59:56;11.38;;;5.93;;
57856;SDS011;43683;48.650;9.290;2022-12-05T11:02:26;9.90;;;5.57;;
57856;SDS011;43683;48.650;9.290;2022-12-05T11:04:54;9.82;;;6.07;;
57856;SDS011;43683;48.650;9.290;2022-12-05T11:09:54;11.88;;;6.03;;
57856;SDS011;43683;48.650;9.290;2022-12-05T11:12:24;10.10;;;5.78;;
57856;SDS011;43683;48.650;9.290;2022-12-05T11:17:24;9.73;;;5.70;;
57856;SDS011;43683;48.650;9.290;2022-12-05T11:19:55;9.20;;;5.20;;
57856;SDS011;43683;48.650;9.290;2022-12-05T11:22:28;10.40;;;5.40;;
57856;SDS011;43683;48.650;9.290;2022-12-05T11:24:58;10.90;;;5.43;;
57856;SDS011;43683;48.650;9.290;2022-12-05T11:27:26;8.07;;;4.85;;
57856;SDS011;43683;48.650;9.290;2022-12-05T11:30:27;10.48;;;5.10;;
57856;SDS011;43683;48.650;9.290;2022-12-05T11:32:47;11.32;;;6.05;;
57856;SDS011;43683;48.650;9.290;2022-12-05T11:37:56;8.98;;;4.43;;
57856;SDS011;43683;48.650;9.290;2022-12-05T11:45:38;8.80;;;5.38;;
57856;SDS011;43683;48.650;9.290;2022-12-05T11:56:40;9.10;;;5.05;;
57856;SDS011;43683;48.650;9.290;2022-12-05T12:04:49;8.07;;;4.72;;
57856;SDS011;43683;48.650;9.290;2022-12-05T12:21:33;8.48;;;4.50;;
57856;SDS011;43683;48.650;9.290;2022-12-05T12:24:14;6.85;;;4.35;;
57856;SDS011;43683;48.650;9.290;2022-12-05T12:29:42;8.20;;;3.92;;
57856;SDS011;43683;48.650;9.290;2022-12-05T12:40:55;5.68;;;3.38;;
57856;SDS011;43683;48.650;9.290;2022-12-05T12:51:35;4.38;;;2.60;;
57856;SDS011;43683;48.650;9.290;2022-12-05T12:57:07;2.70;;;2.38;;
57856;SDS011;43683;48.650;9.290;2022-12-05T13:03:25;5.22;;;2.60;;
57856;SDS011;43683;48.650;9.290;2022-12-05T13:05:59;3.53;;;2.38;;
57856;SDS011;43683;48.650;9.290;2022-12-05T13:08:47;4.22;;;2.05;;
57856;SDS011;43683;48.650;9.290;2022-12-05T13:11:17;3.05;;;2.30;;
57856;SDS011;43683;48.650;9.290;2022-12-05T13:13:52;5.68;;;2.40;;
57856;SDS011;43683;48.650;9.290;2022-12-05T13:16:25;4.50;;;2.65;;
57856;SDS011;43683;48.650;9.290;2022-12-05T13:18:55;3.90;;;2.42;;
57856;SDS011;43683;48.650;9.290;2022-12-05T13:21:21;2.25;;;1.90;;
57856;SDS011;43683;48.650;9.290;2022-12-05T13:23:49;2.28;;;2.03;;
57856;SDS011;43683;48.650;9.290;2022-12-05T13:26:18;4.07;;;2.20;;
57856;SDS011;43683;48.650;9.290;2022-12-05T13:28:50;4.30;;;1.92;;
57856;SDS011;43683;48.650;9.290;2022-12-05T13:31:18;4.22;;;2.38;;
57856;SDS011;43683;48.650;9.290;2022-12-05T13:33:58;4.18;;;2.60;;
57856;SDS011;43683;48.650;9.290;2022-12-05T13:36:23;2.53;;;2.15;;
57856;SDS011;43683;48.650;9.290;2022-12-05T13:41:58;3.92;;;2.03;;
57856;SDS011;43683;48.650;9.290;2022-12-05T13:44:52;2.70;;;2.30;;
57856;SDS011;43683;48.650;9.290;2022-12-05T13:49:55;3.17;;;1.95;;
57856;SDS011;43683;48.650;9.290;2022-12-05T13:52:51;3.42;;;1.80;;
57856;SDS011;43683;48.650;9.290;2022-12-05T13:55:35;6.22;;;2.20;;
57856;SDS011;43683;48.650;9.290;2022-12-05T14:00:44;2.80;;;1.75;;
57856;SDS011;43683;48.650;9.290;2022-12-05T14:05:57;4.65;;;2.00;;
57856;SDS011;43683;48.650;9.290;2022-12-05T14:18:45;3.95;;;2.20;;
57856;SDS011;43683;48.650;9.290;2022-12-05T14:21:17;3.55;;;2.05;;
57856;SDS011;43683;48.650;9.290;2022-12-05T14:23:57;3.20;;;2.20;;
57856;SDS011;43683;48.650;9.290;2022-12-05T14:26:59;6.60;;;2.55;;
57856;SDS011;43683;48.650;9.290;2022-12-05T14:32:29;3.70;;;2.30;;
57856;SDS011;43683;48.650;9.290;2022-12-05T14:37:56;4.07;;;2.63;;
57856;SDS011;43683;48.650;9.290;2022-12-05T14:40:29;4.28;;;2.70;;
57856;SDS011;43683;48.650;9.290;2022-12-05T15:06:42;5.65;;;1.75;;
57856;SDS011;43683;48.650;9.290;2022-12-05T15:12:10;2.70;;;1.83;;
57856;SDS011;43683;48.650;9.290;2022-12-05T15:15:05;3.53;;;1.90;;
57856;SDS011;43683;48.650;9.290;2022-12-05T15:17:57;3.10;;;2.28;;
57856;SDS011;43683;48.650;9.290;2022-12-05T15:24:11;3.40;;;1.90;;
57856;SDS011;43683;48.650;9.290;2022-12-05T15:28:55;4.68;;;1.92;;
57856;SDS011;43683;48.650;9.290;2022-12-05T15:31:27;3.22;;;2.50;;
57856;SDS011;43683;48.650;9.290;2022-12-05T15:33:57;3.15;;;2.50;;
57856;SDS011;43683;48.650;9.290;2022-12-05T15:36:29;13.13;;;6.47;;
57856;SDS011;43683;48.650;9.290;2022-12-05T15:39:02;3.53;;;2.53;;
57856;SDS011;43683;48.650;9.290;2022-12-05T15:41:41;3.95;;;3.15;;
57856;SDS011;43683;48.650;9.290;2022-12-05T15:44:08;10.68;;;6.50;;
57856;SDS011;43683;48.650;9.290;2022-12-05T15:49:00;3.63;;;3.08;;
57856;SDS011;43683;48.650;9.290;2022-12-05T15:51:40;4.05;;;2.78;;
57856;SDS011;43683;48.650;9.290;2022-12-05T15:54:12;6.68;;;4.43;;
57856;SDS011;43683;48.650;9.290;2022-12-05T15:56:49;3.75;;;2.75;;
57856;SDS011;43683;48.650;9.290;2022-12-05T15:59:35;4.30;;;2.90;;
57856;SDS011;43683;48.650;9.290;2022-12-05T16:02:09;6.18;;;3.22;;
57856;SDS011;43683;48.650;9.290;2022-12-05T16:04:48;7.05;;;4.28;;
57856;SDS011;43683;48.650;9.290;2022-12-05T16:07:17;6.18;;;3.60;;
57856;SDS011;43683;48.650;9.290;2022-12-05T16:09:45;6.65;;;3.97;;
57856;SDS011;43683;48.650;9.290;2022-12-05T16:12:16;8.70;;;4.43;;
57856;SDS011;43683;48.650;9.290;2022-12-05T16:14:49;4.47;;;2.90;;
57856;SDS011;43683;48.650;9.290;2022-12-05T16:17:17;4.57;;;3.45;;
57856;SDS011;43683;48.650;9.290;2022-12-05T16:19:44;11.13;;;5.45;;
57856;SDS011;43683;48.650;9.290;2022-12-05T16:24:40;7.90;;;3.85;;
57856;SDS011;43683;48.650;9.290;2022-12-05T16:27:41;5.53;;;3.42;;
57856;SDS011;43683;48.650;9.290;2022-12-05T16:30:17;9.65;;;3.30;;
57856;SDS011;43683;48.650;9.290;2022-12-05T16:32:46;3.50;;;2.28;;
57856;SDS011;43683;48.650;9.290;2022-12-05T16:38:13;4.50;;;3.22;;
57856;SDS011;43683;48.650;9.290;2022-12-05T16:40:55;4.50;;;3.10;;
57856;SDS011;43683;48.650;9.290;2022-12-05T16:45:58;3.60;;;3.03;;
57856;SDS011;43683;48.650;9.290;2022-12-05T16:48:45;4.65;;;2.90;;
57856;SDS011;43683;48.650;9.290;2022-12-05T16:53:41;5.32;;;3.00;;
57856;SDS011;43683;48.650;9.290;2022-12-05T16:56:12;4.15;;;3.08;;
57856;SDS011;43683;48.650;9.290;2022-12-05T16:59:05;8.77;;;3.70;;
57856;SDS011;43683;48.650;9.290;2022-12-05T17:01:34;4.43;;;2.80;;
57856;SDS011;43683;48.650;9.290;2022-12-05T17:04:00;4.10;;;2.60;;
57856;SDS011;43683;48.650;9.290;2022-12-05T17:06:26;4.35;;;2.75;;
57856;SDS011;43683;48.650;9.290;2022-12-05T17:08:51;5.28;;;3.55;;
57856;SDS011;43683;48.650;9.290;2022-12-05T17:13:48;10.00;;;7.15;;
57856;SDS011;43683;48.650;9.290;2022-12-05T17:16:14;7.70;;;5.57;;
57856;SDS011;43683;48.650;9.290;2022-12-05T17:18:42;9.98;;;8.05;;
57856;SDS011;43683;48.650;9.290;2022-12-05T17:21:12;9.48;;;5.70;;
57856;SDS011;43683;48.650;9.290;2022-12-05T17:23:41;19.17;;;10.73;;
57856;SDS011;43683;48.650;9.290;2022-12-05T17:26:07;30.55;;;17.40;;
57856;SDS011;43683;48.650;9.290;2022-12-05T17:28:36;11.65;;;8.02;;
57856;SDS011;43683;48.650;9.290;2022-12-05T17:31:02;10.02;;;5.70;;
57856;SDS011;43683;48.650;9.290;2022-12-05T17:33:28;11.23;;;6.22;;
57856;SDS011;43683;48.650;9.290;2022-12-05T17:35:54;8.93;;;6.47;;
57856;SDS011;43683;48.650;9.290;2022-12-05T17:38:19;9.15;;;6.13;;
57856;SDS011;43683;48.650;9.290;2022-12-05T17:40:45;14.48;;;8.70;;
57856;SDS011;43683;48.650;9.290;2022-12-05T17:43:12;8.75;;;5.80;;
57856;SDS011;43683;48.650;9.290;2022-12-05T17:45:38;5.17;;;3.97;;
57856;SDS011;43683;48.650;9.290;2022-12-05T17:48:04;10.75;;;6.88;;
57856;SDS011;43683;48.650;9.290;2022-12-05T17:50:30;10.57;;;6.88;;
57856;SDS011;43683;48.650;9.290;2022-12-05T17:52:56;9.63;;;6.13;;
57856;SDS011;43683;48.650;9.290;2022-12-05T17:55:23;13.23;;;8.85;;
57856;SDS011;43683;48.650;9.290;2022-12-05T17:57:52;28.85;;;18.40;;
57856;SDS011;43683;48.650;9.290;2022-12-05T18:00:19;22.48;;;16.33;;
57856;SDS011;43683;48.650;9.290;2022-12-05T18:02:46;15.35;;;10.18;;
57856;SDS011;43683;48.650;9.290;2022-12-05T18:05:12;12.07;;;7.63;;
57856;SDS011;43683;48.650;9.290;2022-12-05T18:07:39;13.43;;;9.20;;
57856;SDS011;43683;48.650;9.290;2022-12-05T18:10:06;14.27;;;9.67;;
57856;SDS011;43683;48.650;9.290;2022-12-05T18:12:34;16.10;;;12.90;;
57856;SDS011;43683;48.650;9.290;2022-12-05T18:15:00;19.23;;;15.00;;
57856;SDS011;43683;48.650;9.290;2022-12-05T18:17:26;13.57;;;9.48;;
57856;SDS011;43683;48.650;9.290;2022-12-05T18:19:52;16.33;;;11.77;;